Capt. John Reynolds — WDD6151 — position and weather

sailwx.info

Track history (hours):
 
Tides and Currents Weather Stations Pressure Air Temp Water Temp Dewpoint Dewpoint Depression Visibility Wind Speed Wind Dir Waves Ship Positions

Capt. John Reynolds

Owner: AEP River Operations LLC, Chesterfield, MO. More information available from US FCC via Universal Licensing System and Coast Guard Vessel Documentation Center.

Last reported at 2014-Oct-15 10:18 UTC. Time now 2014-Oct-31 15:54 UTC.
Position N 29°55' W 090°12'.
Warning: this ship's position is 16 days out of date.

Length 47 m; draft 3.3 m.

Type: Towing. MMSI: 367168950.

Date/timePositionNaut miles runAvg speedWind from/ knotsBaromVisibWave heightAir tempDewpointWater temp
2014-Oct-15 10:18N 29°55' W 090°12'26 0.6
2014-Oct-13 12:31N 30°02' W 090°42'4 4.2
2014-Oct-13 11:33N 30°02' W 090°37'4 3.8
2014-Oct-13 10:33N 30°03' W 090°33'4 4.0
2014-Oct-13 09:33N 30°02' W 090°28'4 4.2
2014-Oct-13 08:34N 29°59' W 090°25'3 2.8
2014-Oct-13 07:33N 29°57' W 090°23'4 4.4
2014-Oct-13 06:32N 29°57' W 090°18'1 0.0
2014-Oct-11 21:32N 29°57' W 090°19'5 2.5
2014-Oct-11 19:33N 29°59' W 090°24'4 4.3
2014-Oct-11 18:33N 30°00' W 090°28'4 3.6
2014-Oct-11 17:33N 30°03' W 090°32'4 4.5
2014-Oct-11 16:33N 30°02' W 090°37'5 4.0
2014-Oct-11 15:23N 30°02' W 090°42'5 0.5
2014-Oct-11 04:26N 30°00' W 090°48'2 0.1
2014-Oct-10 13:06N 29°59' W 090°49'0 0.0
2014-Oct-10 11:22N 29°59' W 090°49'0 0.0
2014-Oct-10 10:10N 29°59' W 090°49'11 2.9
2014-Oct-10 06:33N 30°02' W 090°38'5 4.8
2014-Oct-10 05:33N 30°03' W 090°32'  
2014-Oct-07 06:25N 29°57' W 090°18'4 5.0
2014-Oct-07 05:33N 29°57' W 090°23'2 2.1
2014-Oct-07 04:31N 29°59' W 090°24'0 0.0
2014-Oct-07 03:31N 29°59' W 090°24'2 1.7
2014-Oct-07 02:32N 29°60' W 090°25'4 4.3
2014-Oct-07 01:31N 30°03' W 090°29'4 3.9
2014-Oct-07 00:33N 30°03' W 090°33'1 1.1
2014-Oct-06 23:33N 30°03' W 090°34'12 0.9
2014-Oct-06 09:24N 30°00' W 090°48'0 0.0
2014-Oct-06 05:18N 30°00' W 090°48'0 0.0
2014-Oct-06 04:06N 30°00' W 090°48'0 0.0
2014-Oct-06 01:30N 30°00' W 090°48'0 0.0
2014-Oct-06 00:24N 30°00' W 090°48'0 0.0
2014-Oct-05 23:30N 30°00' W 090°48'2 0.3
2014-Oct-05 16:33N 30°01' W 090°45'1 0.5
2014-Oct-05 14:07N 30°01' W 090°44'3 4.7
2014-Oct-05 13:23N 30°00' W 090°48'2 2.2
2014-Oct-05 12:28N 30°01' W 090°50'2 1.7
2014-Oct-05 11:33N 29°59' W 090°50'4 4.0
2014-Oct-05 10:29N 30°01' W 090°45'  
Track history (hours):
 
Tides and Currents Weather Stations Pressure Air Temp Water Temp Dewpoint Dewpoint Depression Visibility Wind Speed Wind Dir Waves Ship Positions

Capt. John Reynolds

Owner: AEP River Operations LLC, Chesterfield, MO. More information available from US FCC via Universal Licensing System and Coast Guard Vessel Documentation Center.

Last reported at 2014-Oct-15 10:18 UTC. Time now 2014-Oct-31 15:54 UTC.
Position N 29°55' W 090°12'.
Warning: this ship's position is 16 days out of date.

Length 47 m; draft 3.3 m.

Type: Towing. MMSI: 367168950.

Date/timePositionNaut miles runAvg speedWind from/ knotsBaromVisibWave heightAir tempDewpointWater temp
2014-Oct-15 10:18N 29°55' W 090°12'26 0.6
2014-Oct-13 12:31N 30°02' W 090°42'4 4.2
2014-Oct-13 11:33N 30°02' W 090°37'4 3.8
2014-Oct-13 10:33N 30°03' W 090°33'4 4.0
2014-Oct-13 09:33N 30°02' W 090°28'4 4.2
2014-Oct-13 08:34N 29°59' W 090°25'3 2.8
2014-Oct-13 07:33N 29°57' W 090°23'4 4.4
2014-Oct-13 06:32N 29°57' W 090°18'1 0.0
2014-Oct-11 21:32N 29°57' W 090°19'5 2.5
2014-Oct-11 19:33N 29°59' W 090°24'4 4.3
2014-Oct-11 18:33N 30°00' W 090°28'4 3.6
2014-Oct-11 17:33N 30°03' W 090°32'4 4.5
2014-Oct-11 16:33N 30°02' W 090°37'5 4.0
2014-Oct-11 15:23N 30°02' W 090°42'5 0.5
2014-Oct-11 04:26N 30°00' W 090°48'2 0.1
2014-Oct-10 13:06N 29°59' W 090°49'0 0.0
2014-Oct-10 11:22N 29°59' W 090°49'0 0.0
2014-Oct-10 10:10N 29°59' W 090°49'11 2.9
2014-Oct-10 06:33N 30°02' W 090°38'5 4.8
2014-Oct-10 05:33N 30°03' W 090°32'  
2014-Oct-07 06:25N 29°57' W 090°18'4 5.0
2014-Oct-07 05:33N 29°57' W 090°23'2 2.1
2014-Oct-07 04:31N 29°59' W 090°24'0 0.0
2014-Oct-07 03:31N 29°59' W 090°24'2 1.7
2014-Oct-07 02:32N 29°60' W 090°25'4 4.3
2014-Oct-07 01:31N 30°03' W 090°29'4 3.9
2014-Oct-07 00:33N 30°03' W 090°33'1 1.1
2014-Oct-06 23:33N 30°03' W 090°34'12 0.9
2014-Oct-06 09:24N 30°00' W 090°48'0 0.0
2014-Oct-06 05:18N 30°00' W 090°48'0 0.0
2014-Oct-06 04:06N 30°00' W 090°48'0 0.0
2014-Oct-06 01:30N 30°00' W 090°48'0 0.0
2014-Oct-06 00:24N 30°00' W 090°48'0 0.0
2014-Oct-05 23:30N 30°00' W 090°48'2 0.3
2014-Oct-05 16:33N 30°01' W 090°45'1 0.5
2014-Oct-05 14:07N 30°01' W 090°44'3 4.7
2014-Oct-05 13:23N 30°00' W 090°48'2 2.2
2014-Oct-05 12:28N 30°01' W 090°50'2 1.7
2014-Oct-05 11:33N 29°59' W 090°50'4 4.0
2014-Oct-05 10:29N 30°01' W 090°45'  

Dump ship's entire track history